createdAt,value
2018-12-02T00:00:24.474Z,-0.01
2018-12-02T00:02:52.602Z,0.05
2018-12-02T00:05:20.430Z,0.14
2018-12-02T00:07:48.478Z,0.19
2018-12-02T00:10:17.178Z,0.16
2018-12-02T00:12:44.916Z,0.20
2018-12-02T00:15:15.693Z,0.11
2018-12-02T00:17:43.519Z,0.19
2018-12-02T00:20:12.871Z,0.37
2018-12-02T00:22:40.617Z,0.16
2018-12-02T00:25:12.975Z,0.13
2018-12-02T00:27:41.574Z,0.04
2018-12-02T00:30:11.773Z,0.22
2018-12-02T00:32:39.476Z,-0.02
2018-12-02T00:35:08.878Z,-0.20
2018-12-02T00:37:36.700Z,0.00
2018-12-02T00:40:09.267Z,0.03
2018-12-02T00:42:37.027Z,0.29
2018-12-02T00:45:07.472Z,0.35
2018-12-02T00:47:35.204Z,0.20
2018-12-02T00:50:03.149Z,0.08
2018-12-02T00:52:30.865Z,-0.08
2018-12-02T00:54:58.599Z,0.18
2018-12-02T00:57:26.339Z,0.13
2018-12-02T00:59:54.146Z,-0.14
2018-12-02T01:02:21.896Z,-0.02
2018-12-02T01:04:49.645Z,0.04
2018-12-02T01:07:17.393Z,0.16
2018-12-02T01:09:45.130Z,0.07
2018-12-02T01:12:12.908Z,0.15
2018-12-02T01:14:40.615Z,-0.24
2018-12-02T01:17:08.350Z,-0.36
2018-12-02T01:19:36.092Z,-0.20
2018-12-02T01:22:03.896Z,-0.14
2018-12-02T01:24:31.624Z,-0.20
2018-12-02T01:26:59.370Z,-0.14
2018-12-02T01:29:27.080Z,-0.02
2018-12-02T01:31:54.842Z,-0.17
2018-12-02T01:34:22.576Z,-0.02
2018-12-02T01:36:50.320Z,0.26
2018-12-02T01:39:18.236Z,0.35
2018-12-02T01:41:45.966Z,-0.11
2018-12-02T01:44:13.681Z,-0.30
2018-12-02T01:46:41.443Z,-0.25
2018-12-02T01:49:09.165Z,-0.30
2018-12-02T01:51:36.880Z,-0.45
2018-12-02T01:54:05.132Z,-0.13
2018-12-02T01:56:32.944Z,-0.18
2018-12-02T01:59:00.670Z,-0.44
2018-12-02T02:01:28.402Z,-0.27
2018-12-02T02:03:56.140Z,-0.32
2018-12-02T02:06:23.875Z,-0.43
2018-12-02T02:08:51.629Z,-0.41
2018-12-02T02:11:19.366Z,-0.12
2018-12-02T02:13:47.118Z,0.13
2018-12-02T02:16:14.881Z,0.07
2018-12-02T02:18:42.618Z,0.03
2018-12-02T02:21:10.453Z,0.18
2018-12-02T02:23:38.216Z,0.56
2018-12-02T02:26:05.999Z,0.30
2018-12-02T02:28:33.735Z,0.30
2018-12-02T02:31:01.460Z,0.16
2018-12-02T02:33:29.194Z,-0.13
2018-12-02T02:35:56.926Z,0.02
2018-12-02T02:38:24.669Z,-0.27
2018-12-02T02:40:52.417Z,-0.42
2018-12-02T02:43:20.169Z,-0.04
2018-12-02T02:45:47.938Z,0.00
2018-12-02T02:48:15.682Z,-0.31
2018-12-02T02:50:43.419Z,0.22
2018-12-02T02:53:11.222Z,0.60
2018-12-02T02:55:38.972Z,0.47
2018-12-02T02:58:06.734Z,0.49
2018-12-02T03:00:34.488Z,0.33
2018-12-02T03:03:02.202Z,0.20
2018-12-02T03:05:29.955Z,0.29
2018-12-02T03:07:57.681Z,0.39
2018-12-02T03:10:25.443Z,0.02
2018-12-02T03:12:53.817Z,-0.15
2018-12-02T03:15:22.276Z,-0.10
2018-12-02T03:17:50.032Z,-0.23
2018-12-02T03:20:19.576Z,-0.40
2018-12-02T03:22:50.017Z,-0.24
2018-12-02T03:25:18.627Z,-0.62
2018-12-02T03:27:46.369Z,-0.17
2018-12-02T03:30:19.053Z,-0.41
2018-12-02T03:32:46.985Z,-0.44
2018-12-02T03:35:19.454Z,-0.39
2018-12-02T03:37:47.199Z,-0.53
2018-12-02T03:40:16.956Z,-0.77
2018-12-02T03:42:44.753Z,-0.63
2018-12-02T03:45:13.713Z,-0.54
2018-12-02T03:47:41.441Z,-0.63
2018-12-02T03:50:17.472Z,-0.84
2018-12-02T03:52:41.214Z,-0.67
2018-12-02T03:55:09.186Z,-0.55
2018-12-02T03:57:36.965Z,-0.75
2018-12-02T04:00:14.522Z,-0.88
2018-12-02T04:02:42.291Z,-0.79
2018-12-02T04:05:10.912Z,-0.83
2018-12-02T04:07:38.671Z,-0.78
2018-12-02T04:10:11.472Z,-0.85
2018-12-02T04:12:39.241Z,-0.71
2018-12-02T04:15:11.038Z,-0.86
2018-12-02T04:17:38.806Z,-1.07
2018-12-02T04:20:08.401Z,-0.91
2018-12-02T04:22:36.292Z,-0.99
2018-12-02T04:25:04.688Z,-0.97
2018-12-02T04:27:32.436Z,-1.04
2018-12-02T04:30:00.148Z,-1.10
2018-12-02T04:32:27.894Z,-0.89
2018-12-02T04:34:55.683Z,-0.86
2018-12-02T04:37:23.446Z,-1.01
2018-12-02T04:39:51.203Z,-0.81
2018-12-02T04:42:18.985Z,-0.99
2018-12-02T04:44:46.745Z,-0.99
2018-12-02T04:47:14.498Z,-0.81
2018-12-02T04:49:42.223Z,-0.81
2018-12-02T04:52:09.950Z,-1.12
2018-12-02T04:54:37.675Z,-1.15
2018-12-02T04:57:05.867Z,-1.11
2018-12-02T04:59:33.612Z,-1.11
2018-12-02T05:02:01.442Z,-1.20
2018-12-02T05:04:29.191Z,-1.10
2018-12-02T05:06:56.939Z,-0.87
2018-12-02T05:09:24.721Z,-0.81
2018-12-02T05:11:52.457Z,-0.77
2018-12-02T05:14:20.201Z,-1.01
2018-12-02T05:16:47.940Z,-1.07
2018-12-02T05:19:15.658Z,-1.13
2018-12-02T05:21:43.394Z,-1.11
2018-12-02T05:24:11.178Z,-1.08
2018-12-02T05:26:38.920Z,-1.29
2018-12-02T05:29:06.659Z,-1.40
2018-12-02T05:31:34.377Z,-1.27
2018-12-02T05:34:02.324Z,-1.35
2018-12-02T05:36:30.048Z,-1.30
2018-12-02T05:38:57.800Z,-1.30
2018-12-02T05:41:30.894Z,-1.02
2018-12-02T05:43:58.625Z,-0.77
2018-12-02T05:46:26.394Z,-1.01
2018-12-02T05:48:54.127Z,-1.05
2018-12-02T05:51:21.870Z,-1.01
2018-12-02T05:53:49.625Z,-1.06
2018-12-02T05:56:17.360Z,-1.02
2018-12-02T05:58:45.091Z,-0.60
2018-12-02T06:01:12.866Z,-0.62
2018-12-02T06:03:40.595Z,-0.84
2018-12-02T06:06:08.347Z,-0.98
2018-12-02T06:08:36.092Z,-1.17
2018-12-02T06:11:03.893Z,-1.00
2018-12-02T06:13:31.618Z,-1.01
2018-12-02T06:15:59.352Z,-0.87
2018-12-02T06:18:27.078Z,-0.75
2018-12-02T06:20:54.820Z,-0.69
2018-12-02T06:23:22.607Z,-0.57
2018-12-02T06:25:50.363Z,-0.40
2018-12-02T06:28:18.110Z,-0.39
2018-12-02T06:30:45.843Z,-0.32
2018-12-02T06:33:13.640Z,-0.15
2018-12-02T06:35:41.363Z,-0.41
2018-12-02T06:38:09.116Z,-0.60
2018-12-02T06:40:36.828Z,-0.54
2018-12-02T06:43:04.632Z,-0.31
2018-12-02T06:45:32.360Z,-0.35
2018-12-02T06:48:00.103Z,-0.01
2018-12-02T06:50:28.002Z,-0.04
2018-12-02T06:52:56.487Z,-0.02
2018-12-02T06:55:34.028Z,0.33
2018-12-02T06:59:19.454Z,0.34
2018-12-02T07:01:59.304Z,0.37
2018-12-02T07:04:28.570Z,0.37
2018-12-02T07:06:56.783Z,0.74
2018-12-02T07:09:24.539Z,0.80
2018-12-02T07:11:52.278Z,0.56
2018-12-02T07:14:20.022Z,0.63
2018-12-02T07:16:47.779Z,0.67
2018-12-02T07:19:22.992Z,0.59
2018-12-02T07:21:57.664Z,0.70
2018-12-02T07:24:28.838Z,0.68
2018-12-02T07:26:58.942Z,0.78
2018-12-02T07:29:26.684Z,0.93
2018-12-02T07:31:54.518Z,0.67
2018-12-02T07:34:22.282Z,0.96
2018-12-02T07:36:50.037Z,1.02
2018-12-02T07:39:58.691Z,0.94
2018-12-02T07:42:26.438Z,1.02
2018-12-02T07:44:54.637Z,1.12
2018-12-02T07:47:22.424Z,1.10
2018-12-02T07:49:50.148Z,1.18
2018-12-02T07:52:17.902Z,1.54
2018-12-02T07:54:45.626Z,1.59
2018-12-02T07:57:14.367Z,1.67
2018-12-02T07:59:42.152Z,1.67
2018-12-02T08:02:09.930Z,1.51
2018-12-02T08:04:38.017Z,1.72
2018-12-02T08:07:06.009Z,1.77
2018-12-02T08:09:33.787Z,1.92
2018-12-02T08:12:01.532Z,2.00
2018-12-02T08:14:29.248Z,2.04
2018-12-02T08:16:56.968Z,2.10
2018-12-02T08:19:24.725Z,2.19
2018-12-02T08:21:52.503Z,2.23
2018-12-02T08:24:20.226Z,2.04
2018-12-02T08:26:47.956Z,2.12
2018-12-02T08:29:15.691Z,2.20
2018-12-02T08:31:43.429Z,2.32
2018-12-02T08:34:11.164Z,2.34
2018-12-02T08:36:38.921Z,2.41
2018-12-02T08:39:09.488Z,2.33
2018-12-02T08:41:37.228Z,2.32
2018-12-02T08:44:05.500Z,2.33
2018-12-02T08:46:33.218Z,2.44
2018-12-02T08:49:00.936Z,2.45
2018-12-02T08:51:28.671Z,2.39
2018-12-02T08:53:56.393Z,2.33
2018-12-02T08:56:24.182Z,2.43
2018-12-02T08:58:51.916Z,2.43
2018-12-02T09:01:19.640Z,2.45
2018-12-02T09:03:47.376Z,2.48
2018-12-02T09:06:15.132Z,2.63
2018-12-02T09:08:42.860Z,3.10
2018-12-02T09:11:10.629Z,3.16
2018-12-02T09:13:38.377Z,3.06
2018-12-02T09:16:06.167Z,3.22
2018-12-02T09:18:33.914Z,3.23
2018-12-02T09:21:01.659Z,3.03
2018-12-02T09:23:29.392Z,3.35
2018-12-02T09:25:57.143Z,3.22
2018-12-02T09:28:24.913Z,3.50
2018-12-02T09:30:52.681Z,3.89
2018-12-02T09:33:20.441Z,3.86
2018-12-02T09:35:48.191Z,3.67
2018-12-02T09:38:15.952Z,3.80
2018-12-02T09:40:43.685Z,4.20
2018-12-02T09:43:11.452Z,4.34
2018-12-02T09:45:39.210Z,4.40
2018-12-02T09:48:06.957Z,4.51
2018-12-02T09:50:34.719Z,4.44
2018-12-02T09:53:02.476Z,4.34
2018-12-02T09:55:32.074Z,4.47
2018-12-02T09:57:59.820Z,4.48
2018-12-02T10:00:27.580Z,4.32
2018-12-02T10:02:55.338Z,4.34
2018-12-02T10:05:23.118Z,4.44
2018-12-02T10:07:50.851Z,4.44
2018-12-02T10:10:22.520Z,4.34
2018-12-02T10:12:53.852Z,4.32
2018-12-02T10:15:21.629Z,4.31
2018-12-02T10:17:49.359Z,4.19
2018-12-02T10:20:17.146Z,4.33
2018-12-02T10:22:47.139Z,4.22
2018-12-02T10:25:17.482Z,4.19
2018-12-02T10:27:53.238Z,4.23
2018-12-02T10:30:22.865Z,4.37
2018-12-02T10:32:51.272Z,4.34
2018-12-02T10:35:19.072Z,4.35
2018-12-02T10:37:47.122Z,4.56
2018-12-02T10:40:19.031Z,4.56
2018-12-02T10:42:47.148Z,4.57
2018-12-02T10:45:16.079Z,4.49
2018-12-02T10:47:43.831Z,4.56
2018-12-02T10:50:21.540Z,4.55
2018-12-02T10:52:49.924Z,4.50
2018-12-02T10:55:22.532Z,4.54
2018-12-02T10:57:50.266Z,4.57
2018-12-02T11:00:23.562Z,4.58
2018-12-02T11:02:51.290Z,4.63
2018-12-02T11:05:19.049Z,4.60
2018-12-02T11:07:46.805Z,4.65
2018-12-02T11:10:14.562Z,4.64
2018-12-02T11:12:42.323Z,4.80
2018-12-02T11:15:15.180Z,4.86
2018-12-02T11:17:44.582Z,4.90
2018-12-02T11:20:13.732Z,4.77
2018-12-02T11:22:41.482Z,4.71
2018-12-02T11:25:13.073Z,4.58
2018-12-02T11:27:40.960Z,4.68
2018-12-02T11:30:12.617Z,4.71
2018-12-02T11:32:40.456Z,4.82
2018-12-02T11:35:10.866Z,4.74
2018-12-02T11:37:38.658Z,4.75
2018-12-02T11:40:09.135Z,4.82
2018-12-02T11:42:36.866Z,4.80
2018-12-02T11:45:06.932Z,4.73
2018-12-02T11:47:34.726Z,4.79
2018-12-02T11:50:02.608Z,4.73
2018-12-02T11:52:30.355Z,4.90
2018-12-02T11:54:58.104Z,4.94
2018-12-02T11:57:26.651Z,5.03
2018-12-02T11:59:53.637Z,5.05
2018-12-02T12:02:21.388Z,4.99
2018-12-02T12:04:49.109Z,4.89
2018-12-02T12:07:16.860Z,4.88
2018-12-02T12:09:44.594Z,4.95
2018-12-02T12:12:12.330Z,4.99
2018-12-02T12:14:40.063Z,5.10
2018-12-02T12:17:07.806Z,5.07
2018-12-02T12:19:35.612Z,5.09
2018-12-02T12:22:03.386Z,5.07
2018-12-02T12:24:31.151Z,4.99
2018-12-02T12:26:58.906Z,5.10
2018-12-02T12:29:26.628Z,5.04
2018-12-02T12:31:54.349Z,5.23
2018-12-02T12:34:22.088Z,5.31
2018-12-02T12:36:49.830Z,5.22
2018-12-02T12:39:17.564Z,5.32
2018-12-02T12:41:45.280Z,5.27
2018-12-02T12:44:13.039Z,5.19
2018-12-02T12:46:40.788Z,5.24
2018-12-02T12:49:08.524Z,5.09
2018-12-02T12:51:39.800Z,5.05
2018-12-02T12:54:10.622Z,5.27
2018-12-02T12:56:38.377Z,5.30
2018-12-02T12:59:06.139Z,5.20
2018-12-02T13:01:33.890Z,5.22
2018-12-02T13:04:01.634Z,5.17
2018-12-02T13:06:29.438Z,5.28
2018-12-02T13:08:57.194Z,5.37
2018-12-02T13:11:24.958Z,5.36
2018-12-02T13:13:52.698Z,5.24
2018-12-02T13:16:20.473Z,5.16
2018-12-02T13:18:48.242Z,5.23
2018-12-02T13:21:15.961Z,5.29
2018-12-02T13:23:43.714Z,5.16
2018-12-02T13:26:11.483Z,5.30
2018-12-02T13:28:39.212Z,5.35
2018-12-02T13:31:08.528Z,5.26
2018-12-02T13:33:37.516Z,5.19
2018-12-02T13:36:05.984Z,5.17
2018-12-02T13:38:34.373Z,5.14
2018-12-02T13:41:03.842Z,5.14
2018-12-02T13:43:33.098Z,5.16
2018-12-02T13:46:01.415Z,5.16
2018-12-02T13:48:29.797Z,5.21
2018-12-02T13:50:57.527Z,5.17
2018-12-02T13:53:25.280Z,5.23
2018-12-02T13:55:53.063Z,5.31
2018-12-02T13:58:20.796Z,5.35
2018-12-02T14:00:48.552Z,5.06
2018-12-02T14:03:16.319Z,4.87
2018-12-02T14:05:46.786Z,4.81
2018-12-02T14:08:14.617Z,4.71
2018-12-02T14:10:42.718Z,4.84
2018-12-02T14:13:15.988Z,4.78
2018-12-02T14:16:21.236Z,4.66
2018-12-02T14:18:49.536Z,4.64
2018-12-02T14:21:17.257Z,4.62
2018-12-02T14:23:45.069Z,4.60
2018-12-02T14:26:15.895Z,4.53
2018-12-02T14:29:08.838Z,4.51
2018-12-02T14:31:37.627Z,4.48
2018-12-02T14:34:05.960Z,4.45
2018-12-02T14:36:33.698Z,4.44
2018-12-02T14:39:01.548Z,4.41
2018-12-02T14:41:29.269Z,4.34
2018-12-02T14:43:57.000Z,4.39
2018-12-02T14:46:24.757Z,4.40
2018-12-02T14:48:52.954Z,4.39
2018-12-02T14:51:20.681Z,4.31
2018-12-02T14:53:48.417Z,4.19
2018-12-02T14:56:16.176Z,4.15
2018-12-02T14:58:43.900Z,4.05
2018-12-02T15:01:11.647Z,3.87
2018-12-02T15:03:39.374Z,3.91
2018-12-02T15:06:07.118Z,4.02
2018-12-02T15:08:34.868Z,3.92
2018-12-02T15:11:02.631Z,4.01
2018-12-02T15:13:30.372Z,3.98
2018-12-02T15:15:58.110Z,3.92
2018-12-02T15:18:25.832Z,3.78
2018-12-02T15:20:53.565Z,3.59
2018-12-02T15:23:21.291Z,3.57
2018-12-02T15:25:49.027Z,3.64
2018-12-02T15:28:16.769Z,3.66
2018-12-02T15:30:44.565Z,3.55
2018-12-02T15:33:12.300Z,3.55
2018-12-02T15:35:40.043Z,3.57
2018-12-02T15:38:07.799Z,3.47
2018-12-02T15:40:35.606Z,3.39
2018-12-02T15:43:03.324Z,3.28
2018-12-02T15:45:31.099Z,3.38
2018-12-02T15:47:58.829Z,3.49
2018-12-02T15:50:26.572Z,3.38
2018-12-02T15:52:54.328Z,3.21
2018-12-02T15:55:26.819Z,3.21
2018-12-02T15:57:54.724Z,3.35
2018-12-02T16:00:25.443Z,3.25
2018-12-02T16:02:53.218Z,3.13
2018-12-02T16:05:20.982Z,3.20
2018-12-02T16:07:48.742Z,3.30
2018-12-02T16:10:16.521Z,3.18
2018-12-02T16:12:45.570Z,3.11
2018-12-02T16:15:17.318Z,2.98
2018-12-02T16:17:46.086Z,2.94
2018-12-02T16:20:17.139Z,2.95
2018-12-02T16:22:44.926Z,3.06
2018-12-02T16:25:12.660Z,3.00
2018-12-02T16:27:40.422Z,2.97
2018-12-02T16:30:10.816Z,2.91
2018-12-02T16:32:38.578Z,2.97
2018-12-02T16:35:07.968Z,2.90
2018-12-02T16:37:35.721Z,2.89
2018-12-02T16:40:03.858Z,2.94
2018-12-02T16:42:31.573Z,2.76
2018-12-02T16:44:59.300Z,2.65
2018-12-02T16:47:27.029Z,2.61
2018-12-02T16:49:54.748Z,2.75
2018-12-02T16:52:23.248Z,2.43
2018-12-02T16:54:51.009Z,2.44
2018-12-02T16:57:20.342Z,2.58
2018-12-02T16:59:48.075Z,2.29
2018-12-02T17:02:15.810Z,2.34
2018-12-02T17:04:43.585Z,2.53
2018-12-02T17:07:12.219Z,2.52
2018-12-02T17:09:40.021Z,2.34
2018-12-02T17:12:07.806Z,2.61
2018-12-02T17:14:38.653Z,2.63
2018-12-02T17:17:03.421Z,2.49
2018-12-02T17:19:31.166Z,2.45
2018-12-02T17:21:58.913Z,2.38
2018-12-02T17:24:26.654Z,2.48
2018-12-02T17:26:54.407Z,2.48
2018-12-02T17:29:22.199Z,2.44
2018-12-02T17:31:54.852Z,2.29
2018-12-02T17:34:22.653Z,2.17
2018-12-02T17:36:50.403Z,2.11
2018-12-02T17:39:21.594Z,2.19
2018-12-02T17:41:55.710Z,2.25
2018-12-02T17:44:23.456Z,2.30
2018-12-02T17:46:51.240Z,2.21
2018-12-02T17:49:20.035Z,2.07
2018-12-02T17:51:47.799Z,1.93
2018-12-02T17:54:15.549Z,1.93
2018-12-02T17:56:43.392Z,1.97
2018-12-02T17:59:11.189Z,2.07
2018-12-02T18:01:38.951Z,2.09
2018-12-02T18:04:07.367Z,1.81
2018-12-02T18:06:35.304Z,1.77
2018-12-02T18:09:03.312Z,1.69
2018-12-02T18:11:31.070Z,1.61
2018-12-02T18:13:58.823Z,1.70
2018-12-02T18:16:27.691Z,1.88
2018-12-02T18:18:56.402Z,1.80
2018-12-02T18:21:24.155Z,1.84
2018-12-02T18:23:51.894Z,1.82
2018-12-02T18:26:19.738Z,1.98
2018-12-02T18:28:47.513Z,1.63
2018-12-02T18:31:15.269Z,1.72
2018-12-02T18:33:43.028Z,1.64
2018-12-02T18:36:12.844Z,1.64
2018-12-02T18:38:42.126Z,1.64
2018-12-02T18:41:19.584Z,1.74
2018-12-02T18:43:47.338Z,1.53
2018-12-02T18:46:15.847Z,1.76
2018-12-02T18:48:43.583Z,1.71
2018-12-02T18:51:11.332Z,1.70
2018-12-02T18:53:39.501Z,1.82
2018-12-02T18:56:07.248Z,1.84
2018-12-02T18:58:34.980Z,1.61
2018-12-02T19:01:02.792Z,1.59
2018-12-02T19:03:30.520Z,1.65
2018-12-02T19:05:58.270Z,1.74
2018-12-02T19:08:26.005Z,1.60
2018-12-02T19:10:56.637Z,1.33
2018-12-02T19:13:24.376Z,1.33
2018-12-02T19:15:52.131Z,1.47
2018-12-02T19:18:19.993Z,1.19
2018-12-02T19:20:49.388Z,1.30
2018-12-02T19:23:22.285Z,1.52
2018-12-02T19:25:50.064Z,1.51
2018-12-02T19:28:17.806Z,1.32
2018-12-02T19:30:45.539Z,1.19
2018-12-02T19:33:15.643Z,1.03
2018-12-02T19:35:44.029Z,1.27
2018-12-02T19:38:18.512Z,1.45
2018-12-02T19:40:47.148Z,1.43
2018-12-02T19:43:14.932Z,1.43
2018-12-02T19:45:42.704Z,1.22
2018-12-02T19:48:10.461Z,1.25
2018-12-02T19:50:38.311Z,1.33
2018-12-02T19:53:06.102Z,1.13
2018-12-02T19:55:34.810Z,1.03
2018-12-02T19:58:02.603Z,0.95
2018-12-02T20:00:36.684Z,1.04
2018-12-02T20:03:04.444Z,1.39
2018-12-02T20:05:32.178Z,1.62
2018-12-02T20:08:01.021Z,1.37
2018-12-02T20:10:30.047Z,1.32
2018-12-02T20:12:59.436Z,1.11
2018-12-02T20:15:27.178Z,0.93
2018-12-02T20:17:54.987Z,1.04
2018-12-02T20:20:58.822Z,1.02
2018-12-02T20:23:32.099Z,1.09
2018-12-02T20:26:00.824Z,1.04
2018-12-02T20:28:36.220Z,1.17
2018-12-02T20:31:10.225Z,1.19
2018-12-02T20:33:37.986Z,1.22
2018-12-02T20:36:06.481Z,1.29
2018-12-02T20:38:34.227Z,1.30
2018-12-02T20:41:02.033Z,1.01
2018-12-02T20:43:30.385Z,0.98
2018-12-02T20:45:58.120Z,0.89
2018-12-02T20:48:25.877Z,0.78
2018-12-02T20:50:53.622Z,0.99
2018-12-02T20:53:21.390Z,0.96
2018-12-02T20:55:49.151Z,0.84
2018-12-02T20:58:16.881Z,0.71
2018-12-02T21:00:44.630Z,0.64
2018-12-02T21:03:15.065Z,0.67
2018-12-02T21:05:52.538Z,0.59
2018-12-02T21:08:20.272Z,0.54
2018-12-02T21:10:48.015Z,0.61
2018-12-02T21:13:15.742Z,0.64
2018-12-02T21:15:43.667Z,0.53
2018-12-02T21:18:11.452Z,0.51
2018-12-02T21:20:39.184Z,0.56
2018-12-02T21:23:06.960Z,0.71
2018-12-02T21:25:34.698Z,0.65
2018-12-02T21:28:02.465Z,0.71
2018-12-02T21:30:30.469Z,0.57
2018-12-02T21:32:58.212Z,0.83
2018-12-02T21:35:25.979Z,0.70
2018-12-02T21:37:55.193Z,0.59
2018-12-02T21:40:23.060Z,0.57
2018-12-02T21:42:50.812Z,0.41
2018-12-02T21:45:18.658Z,0.46
2018-12-02T21:47:48.469Z,0.38
2018-12-02T21:50:19.591Z,0.43
2018-12-02T21:52:47.358Z,0.44
2018-12-02T21:55:15.167Z,0.49
2018-12-02T21:57:42.913Z,0.58
2018-12-02T22:00:20.172Z,0.62
2018-12-02T22:02:48.379Z,0.84
2018-12-02T22:05:16.202Z,0.39
2018-12-02T22:07:44.094Z,0.80
2018-12-02T22:10:18.237Z,0.43
2018-12-02T22:12:46.017Z,0.36
2018-12-02T22:15:13.793Z,0.50
2018-12-02T22:17:41.524Z,0.45
2018-12-02T22:20:13.376Z,0.46
2018-12-02T22:22:41.224Z,0.46
2018-12-02T22:25:10.998Z,0.84
2018-12-02T22:27:38.751Z,1.16
2018-12-02T22:30:09.794Z,0.89
2018-12-02T22:32:37.576Z,0.64
2018-12-02T22:35:07.426Z,0.70
2018-12-02T22:37:35.202Z,0.72
2018-12-02T22:40:03.450Z,0.98
2018-12-02T22:42:31.166Z,0.77
2018-12-02T22:44:58.908Z,0.87
2018-12-02T22:47:26.653Z,0.58
2018-12-02T22:49:54.471Z,0.48
2018-12-02T22:52:22.221Z,0.34
2018-12-02T22:54:49.958Z,0.26
2018-12-02T22:57:17.689Z,0.46
2018-12-02T22:59:45.449Z,0.77
2018-12-02T23:02:16.938Z,0.53
2018-12-02T23:04:45.111Z,0.75
2018-12-02T23:07:12.878Z,0.78
2018-12-02T23:09:40.652Z,0.82
2018-12-02T23:12:08.456Z,1.14
2018-12-02T23:14:36.221Z,0.85
2018-12-02T23:17:24.874Z,0.69
2018-12-02T23:19:53.387Z,0.60
2018-12-02T23:22:21.989Z,0.84
2018-12-02T23:24:51.046Z,1.01
2018-12-02T23:27:18.899Z,0.62
2018-12-02T23:29:46.703Z,0.73
2018-12-02T23:32:14.468Z,1.01
2018-12-02T23:34:42.239Z,0.81
2018-12-02T23:37:09.981Z,1.17
2018-12-02T23:39:38.711Z,1.17
2018-12-02T23:42:06.478Z,0.78
2018-12-02T23:44:34.246Z,0.70
2018-12-02T23:47:02.009Z,0.66
2018-12-02T23:49:29.775Z,0.67
2018-12-02T23:51:57.559Z,0.72
2018-12-02T23:54:25.316Z,0.65
2018-12-02T23:56:53.073Z,0.67
2018-12-02T23:59:20.834Z,0.80
